createdAt,value
2023-01-30T00:00:07.689Z,20.38
2023-01-30T00:02:34.962Z,18.25
2023-01-30T00:05:02.347Z,18.95
2023-01-30T00:07:29.607Z,19.88
2023-01-30T00:09:56.841Z,19.90
2023-01-30T00:12:24.641Z,21.05
2023-01-30T00:14:51.852Z,17.67
2023-01-30T00:17:19.163Z,23.08
2023-01-30T00:19:46.482Z,18.77
2023-01-30T00:22:13.752Z,21.13
2023-01-30T00:24:41.083Z,20.88
2023-01-30T00:27:08.395Z,19.40
2023-01-30T00:29:35.752Z,21.42
2023-01-30T00:32:03.077Z,17.88
2023-01-30T00:34:30.330Z,20.00
2023-01-30T00:37:07.715Z,21.33
2023-01-30T00:39:35.483Z,21.55
2023-01-30T00:42:21.313Z,21.48
2023-01-30T00:45:07.158Z,18.90
2023-01-30T00:47:34.547Z,19.55
2023-01-30T00:50:01.811Z,17.60
2023-01-30T00:52:29.041Z,20.73
2023-01-30T00:54:56.349Z,17.63
2023-01-30T00:57:23.655Z,17.23
2023-01-30T00:59:51.200Z,19.75
2023-01-30T01:02:18.507Z,17.42
2023-01-30T01:04:45.883Z,18.67
2023-01-30T01:07:14.267Z,19.88
2023-01-30T01:09:41.991Z,21.88
2023-01-30T01:12:09.766Z,19.75
2023-01-30T01:14:37.355Z,21.48
2023-01-30T01:17:05.055Z,17.50
2023-01-30T01:19:32.313Z,18.65
2023-01-30T01:21:59.531Z,18.27
2023-01-30T01:24:27.923Z,18.60
2023-01-30T01:26:55.253Z,15.68
2023-01-30T01:29:22.527Z,20.35
2023-01-30T01:31:49.854Z,18.80
2023-01-30T01:34:17.099Z,19.38
2023-01-30T01:36:59.697Z,19.10
2023-01-30T01:39:47.034Z,20.60
2023-01-30T01:42:14.257Z,17.70
2023-01-30T01:45:17.642Z,18.52
2023-01-30T01:47:54.488Z,19.58
2023-01-30T01:50:27.753Z,19.50
2023-01-30T01:52:56.778Z,19.65
2023-01-30T01:55:24.892Z,18.33
2023-01-30T01:57:55.816Z,19.00
2023-01-30T02:00:23.768Z,19.25
2023-01-30T02:02:57.329Z,23.30
2023-01-30T02:05:25.560Z,19.23
2023-01-30T02:08:00.419Z,18.10
2023-01-30T02:10:50.649Z,19.63
2023-01-30T02:13:18.569Z,19.73
2023-01-30T02:15:46.156Z,18.70
2023-01-30T02:18:14.225Z,19.13
2023-01-30T02:20:44.458Z,18.80
2023-01-30T02:23:30.529Z,19.92
2023-01-30T02:26:07.919Z,19.52
2023-01-30T02:28:41.263Z,17.88
2023-01-30T02:31:16.768Z,19.52
2023-01-30T02:33:53.406Z,18.35
2023-01-30T02:36:21.226Z,17.55
2023-01-30T02:39:11.579Z,20.10
2023-01-30T02:41:47.782Z,23.02
2023-01-30T02:44:18.879Z,19.88
2023-01-30T02:46:46.084Z,19.42
2023-01-30T02:49:31.675Z,17.35
2023-01-30T02:52:00.340Z,18.70
2023-01-30T02:54:28.009Z,20.13
2023-01-30T02:56:58.048Z,20.40
2023-01-30T02:59:33.055Z,20.15
2023-01-30T03:02:00.284Z,18.50
2023-01-30T03:04:33.530Z,21.08
2023-01-30T03:07:26.902Z,18.15
2023-01-30T03:09:54.095Z,22.67
2023-01-30T03:12:27.535Z,22.65
2023-01-30T03:15:18.234Z,23.85
2023-01-30T03:17:47.494Z,23.63
2023-01-30T03:20:16.457Z,21.65
2023-01-30T03:22:43.776Z,22.50
2023-01-30T03:25:12.210Z,25.48
2023-01-30T03:27:39.984Z,22.45
2023-01-30T03:30:07.695Z,20.30
2023-01-30T03:32:35.005Z,23.90
2023-01-30T03:35:02.224Z,19.85
2023-01-30T03:37:29.560Z,24.75
2023-01-30T03:39:57.035Z,22.08
2023-01-30T03:42:24.252Z,20.23
2023-01-30T03:44:51.518Z,21.30
2023-01-30T03:47:18.740Z,23.02
2023-01-30T03:49:45.985Z,25.00
2023-01-30T03:52:13.389Z,22.17
2023-01-30T03:54:40.599Z,24.40
2023-01-30T03:57:07.944Z,21.80
2023-01-30T03:59:35.317Z,27.10
2023-01-30T04:02:02.642Z,25.70
2023-01-30T04:04:30.036Z,24.52
2023-01-30T04:06:57.355Z,28.20
2023-01-30T04:09:24.677Z,29.80
2023-01-30T04:11:52.128Z,25.33
2023-01-30T04:14:19.551Z,19.90
2023-01-30T04:16:47.112Z,22.80
2023-01-30T04:19:14.389Z,22.80
2023-01-30T04:21:41.609Z,20.65
2023-01-30T04:24:08.993Z,23.48
2023-01-30T04:26:36.252Z,21.52
2023-01-30T04:29:03.550Z,21.17
2023-01-30T04:31:30.960Z,22.95
2023-01-30T04:33:58.400Z,24.27
2023-01-30T04:36:25.987Z,25.58
2023-01-30T04:38:53.464Z,23.10
2023-01-30T04:41:20.688Z,21.10
2023-01-30T04:43:47.904Z,20.95
2023-01-30T04:46:15.323Z,23.80
2023-01-30T04:48:42.643Z,26.02
2023-01-30T04:51:10.032Z,25.50
2023-01-30T04:53:37.250Z,21.55
2023-01-30T04:56:04.588Z,23.73
2023-01-30T04:58:31.864Z,20.15
2023-01-30T05:01:13.050Z,24.50
2023-01-30T05:03:40.330Z,21.33
2023-01-30T05:06:07.688Z,22.48
2023-01-30T05:08:34.916Z,22.33
2023-01-30T05:11:02.195Z,23.02
2023-01-30T05:13:29.412Z,25.25
2023-01-30T05:15:56.894Z,26.05
2023-01-30T05:18:24.199Z,25.05
2023-01-30T05:20:51.453Z,20.50
2023-01-30T05:23:18.760Z,23.88
2023-01-30T05:25:46.018Z,25.65
2023-01-30T05:28:13.296Z,18.05
2023-01-30T05:30:40.623Z,21.42
2023-01-30T05:33:07.857Z,20.58
2023-01-30T05:35:35.091Z,21.92
2023-01-30T05:38:02.412Z,24.35
2023-01-30T05:40:29.967Z,19.73
2023-01-30T05:42:57.243Z,19.10
2023-01-30T05:45:24.513Z,20.40
2023-01-30T05:47:56.322Z,19.33
2023-01-30T05:50:23.668Z,22.45
2023-01-30T05:52:50.881Z,20.92
2023-01-30T05:55:18.443Z,20.05
2023-01-30T05:57:45.911Z,19.60
2023-01-30T06:00:13.423Z,17.50
2023-01-30T06:02:40.680Z,18.30
2023-01-30T06:05:08.083Z,18.05
2023-01-30T06:07:35.334Z,16.45
2023-01-30T06:10:03.089Z,16.95
2023-01-30T06:12:30.381Z,19.08
2023-01-30T06:14:57.667Z,16.77
2023-01-30T06:17:24.956Z,17.80
2023-01-30T06:19:52.248Z,17.75
2023-01-30T06:22:19.459Z,15.13
2023-01-30T06:24:46.682Z,12.55
2023-01-30T06:27:14.564Z,13.80
2023-01-30T06:29:41.790Z,10.80
2023-01-30T06:32:09.704Z,12.85
2023-01-30T06:34:36.942Z,11.60
2023-01-30T06:37:04.375Z,12.93
2023-01-30T06:39:31.666Z,10.73
2023-01-30T06:41:58.905Z,11.32
2023-01-30T06:44:26.294Z,10.45
2023-01-30T06:46:53.715Z,10.82
2023-01-30T06:49:20.951Z,9.18
2023-01-30T06:51:48.280Z,11.57
2023-01-30T06:54:15.620Z,10.68
2023-01-30T06:56:42.957Z,9.98
2023-01-30T06:59:10.236Z,9.98
2023-01-30T07:01:38.880Z,10.82
2023-01-30T07:04:06.206Z,9.70
2023-01-30T07:06:33.529Z,10.75
2023-01-30T07:09:00.811Z,10.15
2023-01-30T07:11:28.309Z,10.35
2023-01-30T07:13:55.625Z,11.45
2023-01-30T07:16:29.250Z,12.20
2023-01-30T07:18:58.638Z,7.50
2023-01-30T07:21:27.332Z,9.43
2023-01-30T07:23:54.642Z,7.85
2023-01-30T07:26:21.948Z,7.93
2023-01-30T07:28:49.186Z,6.90
2023-01-30T07:31:16.576Z,8.55
2023-01-30T07:33:43.830Z,9.30
2023-01-30T07:36:11.087Z,10.77
2023-01-30T07:38:38.434Z,9.30
2023-01-30T07:41:05.787Z,8.90
2023-01-30T07:43:33.061Z,14.70
2023-01-30T07:46:01.843Z,25.00
2023-01-30T07:48:29.054Z,20.45
2023-01-30T07:50:57.284Z,17.05
2023-01-30T07:53:24.631Z,13.52
2023-01-30T07:55:52.121Z,9.15
2023-01-30T07:58:19.403Z,8.00
2023-01-30T08:00:46.747Z,12.23
2023-01-30T08:03:17.765Z,12.63
2023-01-30T08:05:47.228Z,17.77
2023-01-30T08:08:14.509Z,7.88
2023-01-30T08:10:41.739Z,5.35
2023-01-30T08:13:09.226Z,6.13
2023-01-30T08:15:36.612Z,6.75
2023-01-30T08:18:03.853Z,6.18
2023-01-30T08:20:31.207Z,6.32
2023-01-30T08:22:59.717Z,7.97
2023-01-30T08:25:27.015Z,7.20
2023-01-30T08:27:54.247Z,7.03
2023-01-30T08:30:22.245Z,6.63
2023-01-30T08:32:49.814Z,6.15
2023-01-30T08:35:17.202Z,11.23
2023-01-30T08:37:44.438Z,6.85
2023-01-30T08:40:12.271Z,7.88
2023-01-30T08:42:39.494Z,5.30
2023-01-30T08:45:07.106Z,6.25
2023-01-30T08:47:35.723Z,6.22
2023-01-30T08:50:03.277Z,8.93
2023-01-30T08:52:30.526Z,6.15
2023-01-30T08:54:57.833Z,7.07
2023-01-30T08:57:25.146Z,5.60
2023-01-30T08:59:52.615Z,6.03
2023-01-30T09:02:20.125Z,5.05
2023-01-30T09:04:47.343Z,5.15
2023-01-30T09:07:14.571Z,5.28
2023-01-30T09:09:41.850Z,4.50
2023-01-30T09:12:09.110Z,4.72
2023-01-30T09:14:36.434Z,10.10
2023-01-30T09:17:03.660Z,5.15
2023-01-30T09:19:31.102Z,4.60
2023-01-30T09:21:58.319Z,6.13
2023-01-30T09:24:26.887Z,6.25
2023-01-30T09:26:57.192Z,5.43
2023-01-30T09:29:24.739Z,5.22
2023-01-30T09:31:52.284Z,7.75
2023-01-30T09:34:19.659Z,5.70
2023-01-30T09:36:46.869Z,6.60
2023-01-30T09:39:14.213Z,3.72
2023-01-30T09:42:05.337Z,5.15
2023-01-30T09:44:35.747Z,4.63
2023-01-30T09:47:08.713Z,4.47
2023-01-30T09:49:35.946Z,9.10
2023-01-30T09:52:41.695Z,8.82
2023-01-30T09:55:19.698Z,13.15
2023-01-30T09:57:48.617Z,10.43
2023-01-30T10:00:34.554Z,8.40
2023-01-30T10:03:01.967Z,12.93
2023-01-30T10:05:37.475Z,5.57
2023-01-30T10:08:24.958Z,11.52
2023-01-30T10:11:10.223Z,5.65
2023-01-30T10:16:11.139Z,4.55
2023-01-30T10:18:47.623Z,6.68
2023-01-30T10:21:25.588Z,6.60
2023-01-30T10:23:52.795Z,5.95
2023-01-30T10:26:21.349Z,6.28
2023-01-30T10:28:55.595Z,4.78
2023-01-30T10:31:28.976Z,4.88
2023-01-30T10:34:01.629Z,9.95
2023-01-30T10:36:34.062Z,8.98
2023-01-30T10:39:03.437Z,7.55
2023-01-30T10:41:35.687Z,5.70
2023-01-30T10:44:04.776Z,7.53
2023-01-30T10:46:44.251Z,14.68
2023-01-30T10:49:11.503Z,5.95
2023-01-30T10:51:57.691Z,5.97
2023-01-30T10:54:33.692Z,6.57
2023-01-30T10:57:08.201Z,5.18
2023-01-30T10:59:43.351Z,11.65
2023-01-30T11:02:10.597Z,9.13
2023-01-30T11:04:42.947Z,9.60
2023-01-30T11:07:10.908Z,10.20
2023-01-30T11:09:42.684Z,8.15
2023-01-30T11:12:10.010Z,10.05
2023-01-30T11:14:53.243Z,11.95
2023-01-30T11:17:21.969Z,8.00
2023-01-30T11:19:56.813Z,11.50
2023-01-30T11:22:27.031Z,4.80
2023-01-30T11:25:01.752Z,8.07
2023-01-30T11:27:31.434Z,10.70
2023-01-30T11:30:04.702Z,8.40
2023-01-30T11:32:32.080Z,4.32
2023-01-30T11:35:04.527Z,6.93
2023-01-30T11:37:33.157Z,8.77
2023-01-30T11:40:00.993Z,3.25
2023-01-30T11:42:31.511Z,4.82
2023-01-30T11:45:16.531Z,2.80
2023-01-30T11:47:57.864Z,1.88
2023-01-30T11:50:34.103Z,3.20
2023-01-30T11:53:04.633Z,2.35
2023-01-30T11:55:34.522Z,5.03
2023-01-30T11:58:03.179Z,2.03
2023-01-30T12:00:40.182Z,6.60
2023-01-30T12:03:11.477Z,4.90
2023-01-30T12:05:42.968Z,2.67
2023-01-30T12:08:13.510Z,4.70
2023-01-30T12:10:44.859Z,5.05
2023-01-30T12:13:17.615Z,8.95
2023-01-30T12:15:45.764Z,5.85
2023-01-30T12:18:24.893Z,7.18
2023-01-30T12:21:01.325Z,11.63
2023-01-30T12:23:37.700Z,3.80
2023-01-30T12:26:28.442Z,5.70
2023-01-30T12:29:14.373Z,3.60
2023-01-30T12:31:50.423Z,7.05
2023-01-30T12:34:17.972Z,8.82
2023-01-30T12:36:57.498Z,4.55
2023-01-30T12:39:48.066Z,4.88
2023-01-30T12:42:47.986Z,2.78
2023-01-30T12:45:15.173Z,8.77
2023-01-30T12:47:48.298Z,6.60
2023-01-30T12:50:15.589Z,4.80
2023-01-30T12:52:43.063Z,6.80
2023-01-30T12:55:16.476Z,8.23
2023-01-30T12:57:43.831Z,5.18
2023-01-30T13:00:20.697Z,7.97
2023-01-30T13:03:08.471Z,6.50
2023-01-30T13:05:54.707Z,4.43
2023-01-30T13:08:24.873Z,4.85
2023-01-30T13:11:16.993Z,2.42
2023-01-30T13:13:52.902Z,4.80
2023-01-30T13:16:23.105Z,7.88
2023-01-30T13:18:58.467Z,4.90
2023-01-30T13:24:02.276Z,5.60
2023-01-30T13:26:37.470Z,5.78
2023-01-30T13:31:33.794Z,4.60
2023-01-30T13:34:04.204Z,7.63
2023-01-30T13:36:41.477Z,7.38
2023-01-30T13:41:46.311Z,7.47
2023-01-30T13:44:24.241Z,9.77
2023-01-30T13:46:53.489Z,6.38
2023-01-30T13:49:31.492Z,9.00
2023-01-30T13:52:02.540Z,11.80
2023-01-30T13:54:29.797Z,7.30
2023-01-30T13:56:56.990Z,7.88
2023-01-30T13:59:30.770Z,8.20
2023-01-30T14:02:03.848Z,6.05
2023-01-30T14:04:31.259Z,9.90
2023-01-30T14:07:09.593Z,9.13
2023-01-30T14:09:37.445Z,8.10
2023-01-30T14:12:06.833Z,7.03
2023-01-30T14:14:36.868Z,5.85
2023-01-30T14:17:10.190Z,8.32
2023-01-30T14:19:39.473Z,6.70
2023-01-30T14:22:23.391Z,10.35
2023-01-30T14:25:09.172Z,7.75
2023-01-30T14:30:03.619Z,6.75
2023-01-30T14:32:33.865Z,9.88
2023-01-30T14:35:04.303Z,12.32
2023-01-30T14:37:38.060Z,10.10
2023-01-30T14:40:23.796Z,9.80
2023-01-30T14:45:38.135Z,5.05
2023-01-30T14:48:26.774Z,6.25
2023-01-30T14:51:13.131Z,10.88
2023-01-30T14:53:52.990Z,6.32
2023-01-30T14:56:20.987Z,8.15
2023-01-30T14:59:01.847Z,7.03
2023-01-30T15:01:29.153Z,5.32
2023-01-30T15:03:56.523Z,9.65
2023-01-30T15:06:26.345Z,3.85
2023-01-30T15:08:53.717Z,6.90
2023-01-30T15:11:30.451Z,5.22
2023-01-30T15:14:12.707Z,15.30
2023-01-30T15:16:40.298Z,9.60
2023-01-30T15:19:10.653Z,5.32
2023-01-30T15:21:39.952Z,8.38
2023-01-30T15:24:14.469Z,5.13
2023-01-30T15:26:50.840Z,7.68
2023-01-30T15:29:33.196Z,7.65
2023-01-30T15:32:01.573Z,6.30
2023-01-30T15:34:29.857Z,5.22
2023-01-30T15:36:57.474Z,8.63
2023-01-30T15:39:28.908Z,9.43
2023-01-30T15:42:00.010Z,8.45
2023-01-30T15:44:27.190Z,7.45
2023-01-30T15:47:12.894Z,5.20
2023-01-30T15:52:10.325Z,7.13
2023-01-30T15:54:37.758Z,12.80
2023-01-30T15:57:05.070Z,5.20
2023-01-30T15:59:34.715Z,9.80
2023-01-30T16:02:04.836Z,7.20
2023-01-30T16:04:32.565Z,4.85
2023-01-30T16:06:59.851Z,11.02
2023-01-30T16:09:27.276Z,7.95
2023-01-30T16:11:54.588Z,7.65
2023-01-30T16:14:22.801Z,9.90
2023-01-30T16:16:52.893Z,4.45
2023-01-30T16:19:26.749Z,7.70
2023-01-30T16:21:56.057Z,6.93
2023-01-30T16:24:33.592Z,7.57
2023-01-30T16:27:03.050Z,8.52
2023-01-30T16:29:32.285Z,9.32
2023-01-30T16:32:00.025Z,13.43
2023-01-30T16:34:32.185Z,5.97
2023-01-30T16:37:04.332Z,6.47
2023-01-30T16:39:35.835Z,4.05
2023-01-30T16:42:05.206Z,8.77
2023-01-30T16:44:33.063Z,6.90
2023-01-30T16:47:02.028Z,10.50
2023-01-30T16:49:38.535Z,10.30
2023-01-30T16:52:18.705Z,8.63
2023-01-30T16:54:51.165Z,7.18
2023-01-30T16:57:35.962Z,7.30
2023-01-30T17:00:05.186Z,7.33
2023-01-30T17:02:36.353Z,10.25
2023-01-30T17:05:29.973Z,9.05
2023-01-30T17:07:57.818Z,10.48
2023-01-30T17:10:40.360Z,9.60
2023-01-30T17:13:27.584Z,12.45
2023-01-30T17:15:55.436Z,10.50
2023-01-30T17:18:22.725Z,7.90
2023-01-30T17:20:51.369Z,9.73
2023-01-30T17:23:20.343Z,7.18
2023-01-30T17:25:48.784Z,7.65
2023-01-30T17:28:21.526Z,10.52
2023-01-30T17:30:50.595Z,8.73
2023-01-30T17:33:18.007Z,8.40
2023-01-30T17:35:45.740Z,13.00
2023-01-30T17:38:13.351Z,8.13
2023-01-30T17:40:40.734Z,11.70
2023-01-30T17:43:09.661Z,8.68
2023-01-30T17:45:37.126Z,8.10
2023-01-30T17:48:04.473Z,11.85
2023-01-30T17:50:32.619Z,9.77
2023-01-30T17:52:59.971Z,13.32
2023-01-30T17:55:27.296Z,11.43
2023-01-30T17:57:55.130Z,5.85
2023-01-30T18:00:22.986Z,5.85
2023-01-30T18:02:50.491Z,9.77
2023-01-30T18:05:17.812Z,5.95
2023-01-30T18:07:45.380Z,8.15
2023-01-30T18:10:14.180Z,9.73
2023-01-30T18:12:41.451Z,10.90
2023-01-30T18:15:09.108Z,7.43
2023-01-30T18:17:39.072Z,10.13
2023-01-30T18:20:06.510Z,12.40
2023-01-30T18:22:33.761Z,8.50
2023-01-30T18:25:00.965Z,6.90
2023-01-30T18:27:28.307Z,8.55
2023-01-30T18:29:55.556Z,5.95
2023-01-30T18:32:22.760Z,8.63
2023-01-30T18:34:50.010Z,8.32
2023-01-30T18:37:17.475Z,8.32
2023-01-30T18:39:44.738Z,8.85
2023-01-30T18:42:12.050Z,11.98
2023-01-30T18:44:39.473Z,8.35
2023-01-30T18:47:06.788Z,5.85
2023-01-30T18:49:34.144Z,10.60
2023-01-30T18:52:01.539Z,8.25
2023-01-30T18:54:28.841Z,5.95
2023-01-30T18:56:57.184Z,9.80
2023-01-30T18:59:25.467Z,7.63
2023-01-30T19:01:52.706Z,15.00
2023-01-30T19:04:19.946Z,7.20
2023-01-30T19:06:47.172Z,12.40
2023-01-30T19:09:15.734Z,7.72
2023-01-30T19:12:12.466Z,11.38
2023-01-30T19:14:40.095Z,8.23
2023-01-30T19:17:07.315Z,12.00
2023-01-30T19:19:37.133Z,14.98
2023-01-30T19:22:04.409Z,8.63
2023-01-30T19:24:31.726Z,12.90
2023-01-30T19:26:58.969Z,11.88
2023-01-30T19:29:26.210Z,14.77
2023-01-30T19:31:53.544Z,9.82
2023-01-30T19:34:20.888Z,7.40
2023-01-30T19:36:48.191Z,10.00
2023-01-30T19:39:15.412Z,11.07
2023-01-30T19:41:42.660Z,8.50
2023-01-30T19:44:12.172Z,8.85
2023-01-30T19:46:39.557Z,16.20
2023-01-30T19:49:06.935Z,9.73
2023-01-30T19:51:35.302Z,10.60
2023-01-30T19:54:04.987Z,7.75
2023-01-30T19:56:32.933Z,8.38
2023-01-30T19:59:01.069Z,11.13
2023-01-30T20:01:30.648Z,6.63
2023-01-30T20:03:59.015Z,7.68
2023-01-30T20:06:28.053Z,6.53
2023-01-30T20:08:56.620Z,8.45
2023-01-30T20:11:23.903Z,9.55
2023-01-30T20:13:51.642Z,8.70
2023-01-30T20:16:20.817Z,10.63
2023-01-30T20:18:55.100Z,8.63
2023-01-30T20:21:23.117Z,10.57
2023-01-30T20:23:50.794Z,11.23
2023-01-30T20:26:19.435Z,10.02
2023-01-30T20:28:46.954Z,5.80
2023-01-30T20:31:15.848Z,6.45
2023-01-30T20:33:43.422Z,9.40
2023-01-30T20:36:11.840Z,9.00
2023-01-30T20:38:40.733Z,9.68
2023-01-30T20:41:27.105Z,10.48
2023-01-30T20:43:57.807Z,8.40
2023-01-30T20:46:27.411Z,6.45
2023-01-30T20:48:55.926Z,6.43
2023-01-30T20:51:24.986Z,7.07
2023-01-30T20:53:53.731Z,12.57
2023-01-30T20:56:21.647Z,7.88
2023-01-30T20:58:49.157Z,8.70
2023-01-30T21:01:18.358Z,14.68
2023-01-30T21:03:48.164Z,12.30
2023-01-30T21:06:41.609Z,9.70
2023-01-30T21:09:03.365Z,8.65
2023-01-30T21:11:30.645Z,14.40
2023-01-30T21:13:57.908Z,11.65
2023-01-30T21:16:26.122Z,9.27
2023-01-30T21:18:54.758Z,11.23
2023-01-30T21:21:28.691Z,11.75
2023-01-30T21:23:57.019Z,11.95
2023-01-30T21:26:25.687Z,9.52
2023-01-30T21:28:55.285Z,8.90
2023-01-30T21:31:24.460Z,10.40
2023-01-30T21:33:51.968Z,12.18
2023-01-30T21:36:19.490Z,8.05
2023-01-30T21:39:05.378Z,9.65
2023-01-30T21:41:45.920Z,11.57
2023-01-30T21:44:13.883Z,12.77
2023-01-30T21:46:42.433Z,7.28
2023-01-30T21:49:09.899Z,9.75
2023-01-30T21:51:37.774Z,8.50
2023-01-30T21:54:05.136Z,7.57
2023-01-30T21:56:32.885Z,9.25
2023-01-30T21:59:00.854Z,10.77
2023-01-30T22:01:28.965Z,10.10
2023-01-30T22:03:56.631Z,12.27
2023-01-30T22:06:23.877Z,12.07
2023-01-30T22:08:54.663Z,9.35
2023-01-30T22:11:21.907Z,13.20
2023-01-30T22:13:49.429Z,12.52
2023-01-30T22:16:27.096Z,11.88
2023-01-30T22:18:55.330Z,11.57
2023-01-30T22:21:24.059Z,14.00
2023-01-30T22:23:52.364Z,11.05
2023-01-30T22:26:20.318Z,8.18
2023-01-30T22:28:47.794Z,9.02
2023-01-30T22:31:15.120Z,10.45
2023-01-30T22:33:45.951Z,7.57
2023-01-30T22:36:13.590Z,11.18
2023-01-30T22:38:44.675Z,9.70
2023-01-30T22:41:14.864Z,12.23
2023-01-30T22:43:50.057Z,7.05
2023-01-30T22:48:44.715Z,10.88
2023-01-30T22:51:19.796Z,6.20
2023-01-30T22:53:48.792Z,13.93
2023-01-30T22:56:17.021Z,7.30
2023-01-30T22:58:44.639Z,11.07
2023-01-30T23:01:11.837Z,6.32
2023-01-30T23:03:39.459Z,6.93
2023-01-30T23:06:08.479Z,5.72
2023-01-30T23:08:36.929Z,7.10
2023-01-30T23:11:09.550Z,7.22
2023-01-30T23:13:36.871Z,11.93
2023-01-30T23:16:05.124Z,9.70
2023-01-30T23:18:51.057Z,9.30
2023-01-30T23:21:18.327Z,6.28
2023-01-30T23:23:46.414Z,5.65
2023-01-30T23:26:14.114Z,8.20
2023-01-30T23:28:41.364Z,7.57
2023-01-30T23:31:10.285Z,5.57
2023-01-30T23:33:37.998Z,11.38
2023-01-30T23:36:05.829Z,7.13
2023-01-30T23:38:33.523Z,6.35
2023-01-30T23:41:08.437Z,8.35
2023-01-30T23:43:36.382Z,9.77
2023-01-30T23:46:10.801Z,8.13
2023-01-30T23:48:38.080Z,5.93
2023-01-30T23:51:05.464Z,9.73
2023-01-30T23:53:32.844Z,12.00
2023-01-30T23:56:00.376Z,10.25
2023-01-30T23:58:27.695Z,8.57
